PILOTS ONLINE: 668    ATC ONLINE: 125

Location

IATA WLG
City Wellington
Country  New Zealand
Latitude 41° 19' 37" S
Longitude 174° 48' 17" E
Elevation 41 ft
Type Large Airport

Weather

METAR
2014/07/13 16:30
NZWN 131630Z AUTO 17017KT 9999 BKN016/// OVC023/// 11/08 Q1010 NOSIG
TAF
2014/07/13 19:36
TAF 
      AMD NZWN 121941Z 1219/1318 36012KT 9999 -SHRA FEW014 SCT040 
      TEMPO 1219/1302 BKN012 
      BECMG 1310/1312 20015G25KT

Runways

16/34 6352 ft / 148 ft

Outbound flights

SP27  NZCH - Christchurch, New Zealand
Daniel Santana

Inbound flights


Spotted incorrect airport information? Please login with your VATSIM ID.